sensor_id;sensor_type;location;lat;lon;timestamp;P1;durP1;ratioP1;P2;durP2;ratioP2
75520;SDS011;64102;48.628;9.002;2023-07-09T00:01:04;5.95;;;0.65;;
75520;SDS011;64102;48.628;9.002;2023-07-09T00:03:30;4.57;;;0.38;;
75520;SDS011;64102;48.628;9.002;2023-07-09T00:05:55;5.25;;;0.40;;
75520;SDS011;64102;48.628;9.002;2023-07-09T00:08:28;5.47;;;0.60;;
75520;SDS011;64102;48.628;9.002;2023-07-09T00:10:55;5.30;;;0.50;;
75520;SDS011;64102;48.628;9.002;2023-07-09T00:13:22;5.47;;;0.60;;
75520;SDS011;64102;48.628;9.002;2023-07-09T00:15:49;5.18;;;0.45;;
75520;SDS011;64102;48.628;9.002;2023-07-09T00:18:14;6.28;;;0.50;;
75520;SDS011;64102;48.628;9.002;2023-07-09T00:20:40;6.07;;;0.57;;
75520;SDS011;64102;48.628;9.002;2023-07-09T00:23:08;6.68;;;0.60;;
75520;SDS011;64102;48.628;9.002;2023-07-09T00:25:39;7.75;;;1.20;;
75520;SDS011;64102;48.628;9.002;2023-07-09T00:28:14;6.60;;;1.20;;
75520;SDS011;64102;48.628;9.002;2023-07-09T00:30:40;6.78;;;1.33;;
75520;SDS011;64102;48.628;9.002;2023-07-09T00:33:09;8.95;;;0.80;;
75520;SDS011;64102;48.628;9.002;2023-07-09T00:35:39;5.15;;;0.40;;
75520;SDS011;64102;48.628;9.002;2023-07-09T00:38:07;7.05;;;0.55;;
75520;SDS011;64102;48.628;9.002;2023-07-09T00:40:37;5.10;;;0.50;;
75520;SDS011;64102;48.628;9.002;2023-07-09T00:43:04;5.57;;;0.50;;
75520;SDS011;64102;48.628;9.002;2023-07-09T00:45:39;4.93;;;0.32;;
75520;SDS011;64102;48.628;9.002;2023-07-09T00:48:05;5.82;;;0.43;;
75520;SDS011;64102;48.628;9.002;2023-07-09T00:50:42;6.32;;;0.85;;
75520;SDS011;64102;48.628;9.002;2023-07-09T00:55:48;5.15;;;0.55;;
75520;SDS011;64102;48.628;9.002;2023-07-09T00:58:18;6.75;;;0.60;;
75520;SDS011;64102;48.628;9.002;2023-07-09T01:00:47;6.03;;;0.60;;
75520;SDS011;64102;48.628;9.002;2023-07-09T01:03:20;5.25;;;0.50;;
75520;SDS011;64102;48.628;9.002;2023-07-09T01:05:52;6.68;;;0.65;;
75520;SDS011;64102;48.628;9.002;2023-07-09T01:08:20;7.85;;;0.40;;
75520;SDS011;64102;48.628;9.002;2023-07-09T01:10:46;5.07;;;0.38;;
75520;SDS011;64102;48.628;9.002;2023-07-09T01:13:12;5.95;;;0.60;;
75520;SDS011;64102;48.628;9.002;2023-07-09T01:15:37;5.28;;;0.50;;
75520;SDS011;64102;48.628;9.002;2023-07-09T01:18:03;4.55;;;0.60;;
75520;SDS011;64102;48.628;9.002;2023-07-09T01:20:29;6.93;;;0.75;;
75520;SDS011;64102;48.628;9.002;2023-07-09T01:22:55;5.07;;;0.60;;
75520;SDS011;64102;48.628;9.002;2023-07-09T01:25:21;7.10;;;0.68;;
75520;SDS011;64102;48.628;9.002;2023-07-09T01:27:48;4.85;;;0.50;;
75520;SDS011;64102;48.628;9.002;2023-07-09T01:30:18;7.68;;;0.60;;
75520;SDS011;64102;48.628;9.002;2023-07-09T01:32:49;7.18;;;0.60;;
75520;SDS011;64102;48.628;9.002;2023-07-09T01:35:17;6.15;;;0.80;;
75520;SDS011;64102;48.628;9.002;2023-07-09T01:37:44;6.43;;;0.65;;
75520;SDS011;64102;48.628;9.002;2023-07-09T01:40:10;6.43;;;0.50;;
75520;SDS011;64102;48.628;9.002;2023-07-09T01:42:38;5.53;;;0.63;;
75520;SDS011;64102;48.628;9.002;2023-07-09T01:45:04;7.00;;;0.70;;
75520;SDS011;64102;48.628;9.002;2023-07-09T01:47:31;6.35;;;0.70;;
75520;SDS011;64102;48.628;9.002;2023-07-09T01:49:57;5.57;;;0.60;;
75520;SDS011;64102;48.628;9.002;2023-07-09T01:52:23;7.93;;;0.90;;
75520;SDS011;64102;48.628;9.002;2023-07-09T01:54:52;7.10;;;0.50;;
75520;SDS011;64102;48.628;9.002;2023-07-09T01:57:21;6.65;;;0.90;;
75520;SDS011;64102;48.628;9.002;2023-07-09T01:59:49;7.70;;;0.77;;
75520;SDS011;64102;48.628;9.002;2023-07-09T02:02:15;6.55;;;0.65;;
75520;SDS011;64102;48.628;9.002;2023-07-09T02:04:47;5.50;;;0.50;;
75520;SDS011;64102;48.628;9.002;2023-07-09T02:07:14;5.95;;;0.50;;
75520;SDS011;64102;48.628;9.002;2023-07-09T02:09:40;6.13;;;0.57;;
75520;SDS011;64102;48.628;9.002;2023-07-09T02:12:06;5.93;;;0.60;;
75520;SDS011;64102;48.628;9.002;2023-07-09T02:14:32;5.97;;;0.60;;
75520;SDS011;64102;48.628;9.002;2023-07-09T02:16:58;6.63;;;0.67;;
75520;SDS011;64102;48.628;9.002;2023-07-09T02:19:23;5.97;;;0.70;;
75520;SDS011;64102;48.628;9.002;2023-07-09T02:21:48;6.93;;;0.87;;
75520;SDS011;64102;48.628;9.002;2023-07-09T02:24:14;7.37;;;0.80;;
75520;SDS011;64102;48.628;9.002;2023-07-09T02:26:39;6.20;;;0.63;;
75520;SDS011;64102;48.628;9.002;2023-07-09T02:29:05;6.10;;;0.57;;
75520;SDS011;64102;48.628;9.002;2023-07-09T02:31:30;7.82;;;0.70;;
75520;SDS011;64102;48.628;9.002;2023-07-09T02:33:56;6.47;;;0.80;;
75520;SDS011;64102;48.628;9.002;2023-07-09T02:36:23;7.00;;;1.10;;
75520;SDS011;64102;48.628;9.002;2023-07-09T02:38:49;6.70;;;0.80;;
75520;SDS011;64102;48.628;9.002;2023-07-09T02:41:15;7.88;;;1.00;;
75520;SDS011;64102;48.628;9.002;2023-07-09T02:43:40;6.53;;;0.70;;
75520;SDS011;64102;48.628;9.002;2023-07-09T02:46:06;5.75;;;1.00;;
75520;SDS011;64102;48.628;9.002;2023-07-09T02:48:31;6.60;;;0.97;;
75520;SDS011;64102;48.628;9.002;2023-07-09T02:50:56;6.65;;;0.70;;
75520;SDS011;64102;48.628;9.002;2023-07-09T02:53:22;6.87;;;0.93;;
75520;SDS011;64102;48.628;9.002;2023-07-09T02:55:47;6.93;;;0.60;;
75520;SDS011;64102;48.628;9.002;2023-07-09T02:58:12;5.67;;;0.80;;
75520;SDS011;64102;48.628;9.002;2023-07-09T03:00:38;7.90;;;0.83;;
75520;SDS011;64102;48.628;9.002;2023-07-09T03:03:03;6.83;;;0.80;;
75520;SDS011;64102;48.628;9.002;2023-07-09T03:05:28;7.53;;;1.37;;
75520;SDS011;64102;48.628;9.002;2023-07-09T03:07:54;8.83;;;1.13;;
75520;SDS011;64102;48.628;9.002;2023-07-09T03:10:19;8.37;;;0.93;;
75520;SDS011;64102;48.628;9.002;2023-07-09T03:12:44;7.10;;;0.73;;
75520;SDS011;64102;48.628;9.002;2023-07-09T03:15:11;7.90;;;1.05;;
75520;SDS011;64102;48.628;9.002;2023-07-09T03:17:37;7.25;;;1.02;;
75520;SDS011;64102;48.628;9.002;2023-07-09T03:20:02;6.07;;;0.73;;
75520;SDS011;64102;48.628;9.002;2023-07-09T03:22:28;5.68;;;0.80;;
75520;SDS011;64102;48.628;9.002;2023-07-09T03:24:53;6.70;;;0.80;;
75520;SDS011;64102;48.628;9.002;2023-07-09T03:27:19;7.30;;;1.00;;
75520;SDS011;64102;48.628;9.002;2023-07-09T03:29:44;6.93;;;1.02;;
75520;SDS011;64102;48.628;9.002;2023-07-09T03:32:09;7.38;;;0.90;;
75520;SDS011;64102;48.628;9.002;2023-07-09T03:34:35;6.93;;;0.77;;
75520;SDS011;64102;48.628;9.002;2023-07-09T03:37:00;8.60;;;1.13;;
75520;SDS011;64102;48.628;9.002;2023-07-09T03:39:26;7.57;;;1.10;;
75520;SDS011;64102;48.628;9.002;2023-07-09T03:41:51;7.45;;;0.80;;
75520;SDS011;64102;48.628;9.002;2023-07-09T03:44:17;9.37;;;0.80;;
75520;SDS011;64102;48.628;9.002;2023-07-09T03:46:42;7.97;;;1.23;;
75520;SDS011;64102;48.628;9.002;2023-07-09T03:49:07;6.75;;;0.70;;
75520;SDS011;64102;48.628;9.002;2023-07-09T03:51:33;7.23;;;0.73;;
75520;SDS011;64102;48.628;9.002;2023-07-09T03:53:58;7.60;;;1.10;;
75520;SDS011;64102;48.628;9.002;2023-07-09T03:56:23;7.33;;;1.10;;
75520;SDS011;64102;48.628;9.002;2023-07-09T03:58:49;6.87;;;0.90;;
75520;SDS011;64102;48.628;9.002;2023-07-09T04:01:14;7.63;;;0.80;;
75520;SDS011;64102;48.628;9.002;2023-07-09T04:03:41;6.38;;;0.80;;
75520;SDS011;64102;48.628;9.002;2023-07-09T04:06:06;7.30;;;1.08;;
75520;SDS011;64102;48.628;9.002;2023-07-09T04:08:32;6.10;;;0.63;;
75520;SDS011;64102;48.628;9.002;2023-07-09T04:11:01;7.70;;;1.05;;
75520;SDS011;64102;48.628;9.002;2023-07-09T04:13:27;9.32;;;1.20;;
75520;SDS011;64102;48.628;9.002;2023-07-09T04:15:53;8.20;;;0.98;;
75520;SDS011;64102;48.628;9.002;2023-07-09T04:18:19;7.93;;;0.80;;
75520;SDS011;64102;48.628;9.002;2023-07-09T04:20:48;8.73;;;1.00;;
75520;SDS011;64102;48.628;9.002;2023-07-09T04:23:17;11.52;;;1.08;;
75520;SDS011;64102;48.628;9.002;2023-07-09T04:25:44;7.05;;;0.88;;
75520;SDS011;64102;48.628;9.002;2023-07-09T04:28:09;8.25;;;1.00;;
75520;SDS011;64102;48.628;9.002;2023-07-09T04:30:35;7.90;;;1.07;;
75520;SDS011;64102;48.628;9.002;2023-07-09T04:33:00;6.97;;;0.90;;
75520;SDS011;64102;48.628;9.002;2023-07-09T04:35:26;6.07;;;0.82;;
75520;SDS011;64102;48.628;9.002;2023-07-09T04:37:51;7.20;;;0.93;;
75520;SDS011;64102;48.628;9.002;2023-07-09T04:40:17;7.33;;;0.90;;
75520;SDS011;64102;48.628;9.002;2023-07-09T04:42:44;7.63;;;0.93;;
75520;SDS011;64102;48.628;9.002;2023-07-09T04:45:10;7.25;;;0.80;;
75520;SDS011;64102;48.628;9.002;2023-07-09T04:47:37;5.40;;;0.75;;
75520;SDS011;64102;48.628;9.002;2023-07-09T04:50:04;7.10;;;1.05;;
75520;SDS011;64102;48.628;9.002;2023-07-09T04:52:31;8.65;;;1.48;;
75520;SDS011;64102;48.628;9.002;2023-07-09T04:54:56;7.43;;;0.82;;
75520;SDS011;64102;48.628;9.002;2023-07-09T04:57:21;7.28;;;0.90;;
75520;SDS011;64102;48.628;9.002;2023-07-09T04:59:47;7.22;;;1.10;;
75520;SDS011;64102;48.628;9.002;2023-07-09T05:02:14;6.45;;;0.95;;
75520;SDS011;64102;48.628;9.002;2023-07-09T05:04:39;6.20;;;1.10;;
75520;SDS011;64102;48.628;9.002;2023-07-09T05:07:05;7.13;;;0.80;;
75520;SDS011;64102;48.628;9.002;2023-07-09T05:09:30;7.53;;;1.08;;
75520;SDS011;64102;48.628;9.002;2023-07-09T05:11:56;6.50;;;0.97;;
75520;SDS011;64102;48.628;9.002;2023-07-09T05:14:21;7.10;;;1.00;;
75520;SDS011;64102;48.628;9.002;2023-07-09T05:16:46;7.68;;;0.98;;
75520;SDS011;64102;48.628;9.002;2023-07-09T05:19:12;8.02;;;1.00;;
75520;SDS011;64102;48.628;9.002;2023-07-09T05:21:37;7.45;;;1.08;;
75520;SDS011;64102;48.628;9.002;2023-07-09T05:24:03;6.32;;;0.70;;
75520;SDS011;64102;48.628;9.002;2023-07-09T05:26:29;7.38;;;0.98;;
75520;SDS011;64102;48.628;9.002;2023-07-09T05:28:54;6.23;;;0.80;;
75520;SDS011;64102;48.628;9.002;2023-07-09T05:31:21;6.30;;;1.10;;
75520;SDS011;64102;48.628;9.002;2023-07-09T05:33:47;8.05;;;1.10;;
75520;SDS011;64102;48.628;9.002;2023-07-09T05:36:13;7.47;;;1.00;;
75520;SDS011;64102;48.628;9.002;2023-07-09T05:38:41;6.88;;;1.00;;
75520;SDS011;64102;48.628;9.002;2023-07-09T05:41:07;6.20;;;0.82;;
75520;SDS011;64102;48.628;9.002;2023-07-09T05:43:33;7.22;;;0.93;;
75520;SDS011;64102;48.628;9.002;2023-07-09T05:45:58;7.05;;;1.20;;
75520;SDS011;64102;48.628;9.002;2023-07-09T05:48:27;8.15;;;1.20;;
75520;SDS011;64102;48.628;9.002;2023-07-09T05:50:53;6.43;;;0.95;;
75520;SDS011;64102;48.628;9.002;2023-07-09T05:53:20;7.80;;;1.17;;
75520;SDS011;64102;48.628;9.002;2023-07-09T05:55:45;7.15;;;1.10;;
75520;SDS011;64102;48.628;9.002;2023-07-09T05:58:11;6.43;;;0.90;;
75520;SDS011;64102;48.628;9.002;2023-07-09T06:00:36;6.75;;;0.95;;
75520;SDS011;64102;48.628;9.002;2023-07-09T06:03:02;8.07;;;1.27;;
75520;SDS011;64102;48.628;9.002;2023-07-09T06:05:32;7.00;;;1.33;;
75520;SDS011;64102;48.628;9.002;2023-07-09T06:07:58;6.55;;;1.70;;
75520;SDS011;64102;48.628;9.002;2023-07-09T06:10:23;7.65;;;2.28;;
75520;SDS011;64102;48.628;9.002;2023-07-09T06:12:48;7.40;;;1.95;;
75520;SDS011;64102;48.628;9.002;2023-07-09T06:15:14;7.32;;;2.53;;
75520;SDS011;64102;48.628;9.002;2023-07-09T06:17:39;7.57;;;2.13;;
75520;SDS011;64102;48.628;9.002;2023-07-09T06:20:05;7.22;;;1.80;;
75520;SDS011;64102;48.628;9.002;2023-07-09T06:22:31;7.88;;;2.15;;
75520;SDS011;64102;48.628;9.002;2023-07-09T06:24:56;8.67;;;2.57;;
75520;SDS011;64102;48.628;9.002;2023-07-09T06:27:22;6.65;;;3.55;;
75520;SDS011;64102;48.628;9.002;2023-07-09T06:29:47;7.75;;;3.38;;
75520;SDS011;64102;48.628;9.002;2023-07-09T06:32:12;8.93;;;3.80;;
75520;SDS011;64102;48.628;9.002;2023-07-09T06:34:38;8.47;;;3.47;;
75520;SDS011;64102;48.628;9.002;2023-07-09T06:37:03;6.17;;;2.17;;
75520;SDS011;64102;48.628;9.002;2023-07-09T06:39:30;9.48;;;3.38;;
75520;SDS011;64102;48.628;9.002;2023-07-09T06:41:55;7.82;;;2.35;;
75520;SDS011;64102;48.628;9.002;2023-07-09T06:44:21;6.70;;;3.00;;
75520;SDS011;64102;48.628;9.002;2023-07-09T06:46:46;7.90;;;4.07;;
75520;SDS011;64102;48.628;9.002;2023-07-09T06:49:12;7.65;;;3.70;;
75520;SDS011;64102;48.628;9.002;2023-07-09T06:51:38;8.63;;;4.97;;
75520;SDS011;64102;48.628;9.002;2023-07-09T06:54:04;8.38;;;4.35;;
75520;SDS011;64102;48.628;9.002;2023-07-09T06:56:30;8.43;;;3.88;;
75520;SDS011;64102;48.628;9.002;2023-07-09T06:58:56;8.23;;;5.03;;
75520;SDS011;64102;48.628;9.002;2023-07-09T07:01:22;6.93;;;2.88;;
75520;SDS011;64102;48.628;9.002;2023-07-09T07:03:47;8.27;;;5.38;;
75520;SDS011;64102;48.628;9.002;2023-07-09T07:06:13;9.40;;;4.32;;
75520;SDS011;64102;48.628;9.002;2023-07-09T07:08:38;8.00;;;5.93;;
75520;SDS011;64102;48.628;9.002;2023-07-09T07:11:03;8.63;;;7.57;;
75520;SDS011;64102;48.628;9.002;2023-07-09T07:13:31;7.70;;;6.70;;
75520;SDS011;64102;48.628;9.002;2023-07-09T07:16:00;8.15;;;5.43;;
75520;SDS011;64102;48.628;9.002;2023-07-09T07:18:26;8.98;;;8.00;;
75520;SDS011;64102;48.628;9.002;2023-07-09T07:20:51;8.10;;;7.30;;
75520;SDS011;64102;48.628;9.002;2023-07-09T07:23:17;9.50;;;8.53;;
75520;SDS011;64102;48.628;9.002;2023-07-09T07:25:44;8.10;;;5.00;;
75520;SDS011;64102;48.628;9.002;2023-07-09T07:28:10;11.10;;;10.18;;
75520;SDS011;64102;48.628;9.002;2023-07-09T07:30:36;11.40;;;10.43;;
75520;SDS011;64102;48.628;9.002;2023-07-09T07:33:01;10.63;;;9.70;;
75520;SDS011;64102;48.628;9.002;2023-07-09T07:35:27;14.68;;;13.48;;
75520;SDS011;64102;48.628;9.002;2023-07-09T07:37:53;13.02;;;11.93;;
75520;SDS011;64102;48.628;9.002;2023-07-09T07:40:18;15.07;;;13.88;;
75520;SDS011;64102;48.628;9.002;2023-07-09T07:42:43;17.92;;;16.67;;
75520;SDS011;64102;48.628;9.002;2023-07-09T07:45:09;19.10;;;17.70;;
75520;SDS011;64102;48.628;9.002;2023-07-09T07:47:35;12.60;;;11.52;;
75520;SDS011;64102;48.628;9.002;2023-07-09T07:50:00;19.92;;;18.42;;
75520;SDS011;64102;48.628;9.002;2023-07-09T07:52:26;21.15;;;19.83;;
75520;SDS011;64102;48.628;9.002;2023-07-09T07:54:53;18.20;;;16.83;;
75520;SDS011;64102;48.628;9.002;2023-07-09T07:57:19;21.30;;;19.98;;
75520;SDS011;64102;48.628;9.002;2023-07-09T07:59:47;20.42;;;19.02;;
75520;SDS011;64102;48.628;9.002;2023-07-09T08:02:13;23.37;;;21.77;;
75520;SDS011;64102;48.628;9.002;2023-07-09T08:04:39;21.08;;;19.48;;
75520;SDS011;64102;48.628;9.002;2023-07-09T08:07:09;38.95;;;36.90;;
75520;SDS011;64102;48.628;9.002;2023-07-09T08:09:35;22.75;;;21.40;;
75520;SDS011;64102;48.628;9.002;2023-07-09T08:12:02;36.45;;;34.55;;
75520;SDS011;64102;48.628;9.002;2023-07-09T08:14:34;23.42;;;21.95;;
75520;SDS011;64102;48.628;9.002;2023-07-09T08:16:59;32.63;;;30.92;;
75520;SDS011;64102;48.628;9.002;2023-07-09T08:19:25;33.90;;;32.13;;
75520;SDS011;64102;48.628;9.002;2023-07-09T08:21:50;42.03;;;40.03;;
75520;SDS011;64102;48.628;9.002;2023-07-09T08:24:15;20.57;;;19.07;;
75520;SDS011;64102;48.628;9.002;2023-07-09T08:26:41;31.47;;;29.77;;
75520;SDS011;64102;48.628;9.002;2023-07-09T08:29:06;25.52;;;24.10;;
75520;SDS011;64102;48.628;9.002;2023-07-09T08:31:31;51.60;;;49.23;;
75520;SDS011;64102;48.628;9.002;2023-07-09T08:33:57;30.77;;;29.00;;
75520;SDS011;64102;48.628;9.002;2023-07-09T08:36:23;36.00;;;34.13;;
75520;SDS011;64102;48.628;9.002;2023-07-09T08:38:49;28.92;;;27.33;;
75520;SDS011;64102;48.628;9.002;2023-07-09T08:41:20;36.38;;;34.55;;
75520;SDS011;64102;48.628;9.002;2023-07-09T08:49:38;48.63;;;46.10;;
75520;SDS011;64102;48.628;9.002;2023-07-09T08:52:10;45.75;;;42.80;;
75520;SDS011;64102;48.628;9.002;2023-07-09T08:54:43;40.25;;;38.08;;
75520;SDS011;64102;48.628;9.002;2023-07-09T08:57:17;35.22;;;33.22;;
75520;SDS011;64102;48.628;9.002;2023-07-09T08:59:49;37.97;;;35.97;;
75520;SDS011;64102;48.628;9.002;2023-07-09T09:02:26;106.43;;;100.78;;
75520;SDS011;64102;48.628;9.002;2023-07-09T09:04:56;61.67;;;58.47;;
75520;SDS011;64102;48.628;9.002;2023-07-09T09:10:00;39.38;;;37.47;;
75520;SDS011;64102;48.628;9.002;2023-07-09T09:13:29;39.92;;;38.03;;
75520;SDS011;64102;48.628;9.002;2023-07-09T09:15:29;39.75;;;37.72;;
75520;SDS011;64102;48.628;9.002;2023-07-09T09:17:57;38.22;;;36.30;;
75520;SDS011;64102;48.628;9.002;2023-07-09T09:20:39;32.20;;;30.50;;
75520;SDS011;64102;48.628;9.002;2023-07-09T09:25:31;28.97;;;27.43;;
75520;SDS011;64102;48.628;9.002;2023-07-09T09:28:01;39.47;;;37.50;;
75520;SDS011;64102;48.628;9.002;2023-07-09T09:30:28;38.42;;;36.55;;
75520;SDS011;64102;48.628;9.002;2023-07-09T09:32:58;29.50;;;27.98;;
75520;SDS011;64102;48.628;9.002;2023-07-09T09:35:26;31.38;;;29.63;;
75520;SDS011;64102;48.628;9.002;2023-07-09T09:37:54;28.70;;;27.05;;
75520;SDS011;64102;48.628;9.002;2023-07-09T09:40:21;39.28;;;37.40;;
75520;SDS011;64102;48.628;9.002;2023-07-09T09:42:52;44.22;;;42.25;;
75520;SDS011;64102;48.628;9.002;2023-07-09T09:45:21;29.85;;;28.15;;
75520;SDS011;64102;48.628;9.002;2023-07-09T09:47:49;33.28;;;31.52;;
75520;SDS011;64102;48.628;9.002;2023-07-09T09:50:20;33.25;;;31.55;;
75520;SDS011;64102;48.628;9.002;2023-07-09T09:52:47;23.08;;;21.73;;
75520;SDS011;64102;48.628;9.002;2023-07-09T09:55:23;38.20;;;36.33;;
75520;SDS011;64102;48.628;9.002;2023-07-09T09:57:51;22.05;;;20.73;;
75520;SDS011;64102;48.628;9.002;2023-07-09T10:00:19;23.90;;;22.50;;
75520;SDS011;64102;48.628;9.002;2023-07-09T10:02:47;25.23;;;23.80;;
75520;SDS011;64102;48.628;9.002;2023-07-09T10:05:16;39.92;;;38.05;;
75520;SDS011;64102;48.628;9.002;2023-07-09T10:08:06;21.88;;;20.58;;
75520;SDS011;64102;48.628;9.002;2023-07-09T10:10:38;17.02;;;15.82;;
75520;SDS011;64102;48.628;9.002;2023-07-09T10:15:59;24.95;;;23.50;;
75520;SDS011;64102;48.628;9.002;2023-07-09T10:26:57;28.08;;;26.52;;
75520;SDS011;64102;48.628;9.002;2023-07-09T10:29:52;36.72;;;34.72;;
75520;SDS011;64102;48.628;9.002;2023-07-09T10:35:37;25.42;;;24.02;;
75520;SDS011;64102;48.628;9.002;2023-07-09T10:38:26;21.75;;;20.45;;
75520;SDS011;64102;48.628;9.002;2023-07-09T10:40:58;20.58;;;19.20;;
75520;SDS011;64102;48.628;9.002;2023-07-09T10:46:18;29.67;;;28.13;;
75520;SDS011;64102;48.628;9.002;2023-07-09T10:48:50;39.22;;;37.42;;
75520;SDS011;64102;48.628;9.002;2023-07-09T10:51:41;42.65;;;40.47;;
75520;SDS011;64102;48.628;9.002;2023-07-09T10:56:48;43.05;;;41.08;;
75520;SDS011;64102;48.628;9.002;2023-07-09T10:59:23;20.92;;;19.63;;
75520;SDS011;64102;48.628;9.002;2023-07-09T11:01:58;39.50;;;37.53;;
75520;SDS011;64102;48.628;9.002;2023-07-09T11:04:40;38.15;;;36.25;;
75520;SDS011;64102;48.628;9.002;2023-07-09T11:07:12;33.90;;;31.95;;
75520;SDS011;64102;48.628;9.002;2023-07-09T11:09:43;21.77;;;20.38;;
75520;SDS011;64102;48.628;9.002;2023-07-09T11:14:45;38.65;;;36.70;;
75520;SDS011;64102;48.628;9.002;2023-07-09T11:17:15;25.27;;;23.77;;
75520;SDS011;64102;48.628;9.002;2023-07-09T11:20:06;27.30;;;25.70;;
75520;SDS011;64102;48.628;9.002;2023-07-09T11:22:40;30.65;;;28.95;;
75520;SDS011;64102;48.628;9.002;2023-07-09T11:25:07;25.90;;;24.40;;
75520;SDS011;64102;48.628;9.002;2023-07-09T11:27:45;31.25;;;29.65;;
75520;SDS011;64102;48.628;9.002;2023-07-09T11:32:52;29.15;;;27.38;;
75520;SDS011;64102;48.628;9.002;2023-07-09T11:35:21;28.60;;;26.95;;
75520;SDS011;64102;48.628;9.002;2023-07-09T11:37:48;17.60;;;16.27;;
75520;SDS011;64102;48.628;9.002;2023-07-09T11:40:14;21.75;;;20.25;;
75520;SDS011;64102;48.628;9.002;2023-07-09T11:45:17;20.58;;;19.17;;
75520;SDS011;64102;48.628;9.002;2023-07-09T11:47:52;38.17;;;36.20;;
75520;SDS011;64102;48.628;9.002;2023-07-09T11:50:39;24.02;;;22.45;;
75520;SDS011;64102;48.628;9.002;2023-07-09T11:53:28;34.58;;;32.67;;
75520;SDS011;64102;48.628;9.002;2023-07-09T11:55:59;21.15;;;19.85;;
75520;SDS011;64102;48.628;9.002;2023-07-09T11:58:25;47.50;;;45.22;;
75520;SDS011;64102;48.628;9.002;2023-07-09T12:00:51;24.05;;;22.55;;
75520;SDS011;64102;48.628;9.002;2023-07-09T12:03:21;34.13;;;32.35;;
75520;SDS011;64102;48.628;9.002;2023-07-09T12:05:51;32.25;;;30.40;;
75520;SDS011;64102;48.628;9.002;2023-07-09T12:08:18;18.30;;;16.80;;
75520;SDS011;64102;48.628;9.002;2023-07-09T12:11:21;22.70;;;21.13;;
75520;SDS011;64102;48.628;9.002;2023-07-09T12:13:51;28.65;;;26.80;;
75520;SDS011;64102;48.628;9.002;2023-07-09T12:16:22;18.25;;;16.88;;
75520;SDS011;64102;48.628;9.002;2023-07-09T12:18:52;23.60;;;22.10;;
75520;SDS011;64102;48.628;9.002;2023-07-09T12:21:18;25.85;;;24.35;;
75520;SDS011;64102;48.628;9.002;2023-07-09T12:23:44;13.93;;;12.80;;
75520;SDS011;64102;48.628;9.002;2023-07-09T12:26:11;24.17;;;22.52;;
75520;SDS011;64102;48.628;9.002;2023-07-09T12:28:40;20.48;;;19.00;;
75520;SDS011;64102;48.628;9.002;2023-07-09T12:31:10;26.42;;;24.85;;
75520;SDS011;64102;48.628;9.002;2023-07-09T12:33:45;29.50;;;27.98;;
75520;SDS011;64102;48.628;9.002;2023-07-09T12:36:13;24.33;;;22.85;;
75520;SDS011;64102;48.628;9.002;2023-07-09T12:38:43;23.15;;;21.65;;
75520;SDS011;64102;48.628;9.002;2023-07-09T12:41:18;20.25;;;18.80;;
75520;SDS011;64102;48.628;9.002;2023-07-09T12:43:54;11.43;;;10.05;;
75520;SDS011;64102;48.628;9.002;2023-07-09T12:46:21;16.17;;;14.98;;
75520;SDS011;64102;48.628;9.002;2023-07-09T12:48:47;24.73;;;23.13;;
75520;SDS011;64102;48.628;9.002;2023-07-09T12:51:16;12.27;;;11.18;;
75520;SDS011;64102;48.628;9.002;2023-07-09T12:53:46;13.80;;;12.70;;
75520;SDS011;64102;48.628;9.002;2023-07-09T12:56:13;16.65;;;15.45;;
75520;SDS011;64102;48.628;9.002;2023-07-09T12:58:42;19.73;;;18.35;;
75520;SDS011;64102;48.628;9.002;2023-07-09T13:01:15;8.85;;;7.95;;
75520;SDS011;64102;48.628;9.002;2023-07-09T13:03:41;11.70;;;10.70;;
75520;SDS011;64102;48.628;9.002;2023-07-09T13:06:28;13.57;;;12.48;;
75520;SDS011;64102;48.628;9.002;2023-07-09T13:08:59;10.15;;;9.13;;
75520;SDS011;64102;48.628;9.002;2023-07-09T13:11:25;10.98;;;9.98;;
75520;SDS011;64102;48.628;9.002;2023-07-09T13:13:58;11.88;;;10.88;;
75520;SDS011;64102;48.628;9.002;2023-07-09T13:16:29;17.90;;;16.63;;
75520;SDS011;64102;48.628;9.002;2023-07-09T13:18:55;23.25;;;21.85;;
75520;SDS011;64102;48.628;9.002;2023-07-09T13:21:21;26.48;;;24.92;;
75520;SDS011;64102;48.628;9.002;2023-07-09T13:23:47;30.60;;;28.83;;
75520;SDS011;64102;48.628;9.002;2023-07-09T13:26:14;27.38;;;25.77;;
75520;SDS011;64102;48.628;9.002;2023-07-09T13:28:41;23.60;;;22.15;;
75520;SDS011;64102;48.628;9.002;2023-07-09T13:31:08;22.70;;;21.27;;
75520;SDS011;64102;48.628;9.002;2023-07-09T13:33:38;23.92;;;22.40;;
75520;SDS011;64102;48.628;9.002;2023-07-09T13:36:03;22.05;;;20.70;;
75520;SDS011;64102;48.628;9.002;2023-07-09T13:38:29;18.73;;;17.38;;
75520;SDS011;64102;48.628;9.002;2023-07-09T13:40:56;14.57;;;13.45;;
75520;SDS011;64102;48.628;9.002;2023-07-09T13:45:52;11.57;;;10.43;;
75520;SDS011;64102;48.628;9.002;2023-07-09T13:48:19;13.97;;;12.87;;
75520;SDS011;64102;48.628;9.002;2023-07-09T13:50:46;11.43;;;10.43;;
75520;SDS011;64102;48.628;9.002;2023-07-09T13:53:15;12.57;;;11.48;;
75520;SDS011;64102;48.628;9.002;2023-07-09T13:55:45;14.77;;;13.63;;
75520;SDS011;64102;48.628;9.002;2023-07-09T13:58:12;16.60;;;15.50;;
75520;SDS011;64102;48.628;9.002;2023-07-09T14:00:40;31.27;;;29.52;;
75520;SDS011;64102;48.628;9.002;2023-07-09T14:03:12;15.77;;;14.60;;
75520;SDS011;64102;48.628;9.002;2023-07-09T14:05:40;13.05;;;11.90;;
75520;SDS011;64102;48.628;9.002;2023-07-09T14:08:07;14.65;;;13.55;;
75520;SDS011;64102;48.628;9.002;2023-07-09T14:10:34;15.13;;;13.93;;
75520;SDS011;64102;48.628;9.002;2023-07-09T14:12:59;23.00;;;21.60;;
75520;SDS011;64102;48.628;9.002;2023-07-09T14:15:27;21.67;;;20.25;;
75520;SDS011;64102;48.628;9.002;2023-07-09T14:17:52;18.50;;;17.30;;
75520;SDS011;64102;48.628;9.002;2023-07-09T14:20:20;9.43;;;8.50;;
75520;SDS011;64102;48.628;9.002;2023-07-09T14:22:47;10.50;;;9.52;;
75520;SDS011;64102;48.628;9.002;2023-07-09T14:25:20;10.90;;;10.00;;
75520;SDS011;64102;48.628;9.002;2023-07-09T14:27:49;12.15;;;11.20;;
75520;SDS011;64102;48.628;9.002;2023-07-09T14:30:17;12.70;;;11.70;;
75520;SDS011;64102;48.628;9.002;2023-07-09T14:32:44;16.35;;;15.15;;
75520;SDS011;64102;48.628;9.002;2023-07-09T14:37:38;12.52;;;11.25;;
75520;SDS011;64102;48.628;9.002;2023-07-09T14:40:03;17.33;;;16.13;;
75520;SDS011;64102;48.628;9.002;2023-07-09T14:42:30;8.65;;;7.75;;
75520;SDS011;64102;48.628;9.002;2023-07-09T14:44:56;7.85;;;6.72;;
75520;SDS011;64102;48.628;9.002;2023-07-09T14:47:22;9.57;;;8.25;;
75520;SDS011;64102;48.628;9.002;2023-07-09T14:49:47;9.60;;;7.95;;
75520;SDS011;64102;48.628;9.002;2023-07-09T14:52:14;16.73;;;15.63;;
75520;SDS011;64102;48.628;9.002;2023-07-09T14:54:42;12.40;;;11.40;;
75520;SDS011;64102;48.628;9.002;2023-07-09T14:57:17;10.18;;;9.18;;
75520;SDS011;64102;48.628;9.002;2023-07-09T15:04:57;10.30;;;9.30;;
75520;SDS011;64102;48.628;9.002;2023-07-09T15:07:23;7.03;;;4.68;;
75520;SDS011;64102;48.628;9.002;2023-07-09T15:09:54;8.48;;;5.45;;
75520;SDS011;64102;48.628;9.002;2023-07-09T15:12:21;8.00;;;7.05;;
75520;SDS011;64102;48.628;9.002;2023-07-09T15:14:50;8.15;;;5.10;;
75520;SDS011;64102;48.628;9.002;2023-07-09T15:17:16;8.05;;;6.85;;
75520;SDS011;64102;48.628;9.002;2023-07-09T15:19:41;9.43;;;7.30;;
75520;SDS011;64102;48.628;9.002;2023-07-09T15:22:14;7.78;;;3.45;;
75520;SDS011;64102;48.628;9.002;2023-07-09T15:24:50;9.00;;;6.78;;
75520;SDS011;64102;48.628;9.002;2023-07-09T15:27:15;7.05;;;2.85;;
75520;SDS011;64102;48.628;9.002;2023-07-09T15:29:40;7.50;;;3.87;;
75520;SDS011;64102;48.628;9.002;2023-07-09T15:32:06;7.88;;;4.93;;